Time;durP1;ratioP1;P1;durP2;ratioP2;P2;SDS_P1;SDS_P2;PMS_P1;PMS_P2;Temp;Humidity;BMP_temperature;BMP_pressure;BME280_temperature;BME280_humidity;BME280_pressure;Samples;Min_cycle;Max_cycle;Signal;HPM_P1;HPM_P2
2023/04/06 00:00:34;;;;;;;14.07;7.13;;;;;;;-1.20;100.00;99047.53;5019651;28;20151;-77
2023/04/06 00:02:59;;;;;;;11.55;6.97;;;;;;;-1.28;100.00;99039.34;5035079;28;20029;-77
2023/04/06 00:05:25;;;;;;;12.68;6.50;;;;;;;-1.30;100.00;99038.63;5038732;28;20171;-77
2023/04/06 00:07:50;;;;;;;10.57;6.10;;;;;;;-1.34;100.00;99039.81;5047730;28;20096;-77
2023/04/06 00:10:16;;;;;;;11.73;6.88;;;;;;;-1.34;100.00;99055.75;5044914;28;20037;-77
2023/04/06 00:12:41;;;;;;;12.00;6.75;;;;;;;-1.32;100.00;99033.41;5015723;28;20048;-77
2023/04/06 00:15:07;;;;;;;13.10;7.15;;;;;;;-1.40;100.00;99035.00;5017714;28;20045;-77
2023/04/06 00:17:33;;;;;;;13.85;7.30;;;;;;;-1.35;100.00;99033.66;5031176;28;20032;-77
2023/04/06 00:19:58;;;;;;;15.70;7.53;;;;;;;-1.38;100.00;99014.50;5028815;28;20025;-77
2023/04/06 00:22:23;;;;;;;13.63;8.05;;;;;;;-1.48;100.00;99016.19;5025371;28;20040;-77
2023/04/06 00:24:48;;;;;;;15.25;8.45;;;;;;;-1.56;100.00;99007.03;5016999;28;20054;-78
2023/04/06 00:27:14;;;;;;;16.25;7.25;;;;;;;-1.58;100.00;99016.91;5015930;28;20087;-77
2023/04/06 00:29:40;;;;;;;14.13;7.13;;;;;;;-1.50;100.00;99044.66;5026644;28;20108;-77
2023/04/06 00:32:05;;;;;;;14.30;8.35;;;;;;;-1.49;100.00;99047.19;5032883;28;20040;-76
2023/04/06 00:34:30;;;;;;;21.25;8.32;;;;;;;-1.53;100.00;99036.94;5047884;28;20036;-77
2023/04/06 00:37:03;;;;;;;15.13;7.40;;;;;;;-1.66;100.00;99024.63;5044115;28;20047;-78
2023/04/06 00:39:28;;;;;;;18.33;8.38;;;;;;;-1.77;100.00;99022.81;5039464;28;20017;-77
2023/04/06 00:41:54;;;;;;;15.98;8.60;;;;;;;-1.59;100.00;99041.75;5041574;28;20080;-80
2023/04/06 00:44:21;;;;;;;11.93;7.25;;;;;;;-1.53;100.00;99037.78;5035780;28;20031;-77
2023/04/06 00:46:46;;;;;;;11.70;6.72;;;;;;;-1.65;100.00;99030.78;5031166;28;20414;-77
2023/04/06 00:49:12;;;;;;;13.02;7.40;;;;;;;-1.82;100.00;99018.84;5054836;28;20029;-79
2023/04/06 00:51:37;;;;;;;16.98;7.03;;;;;;;-1.85;100.00;99021.75;5037920;28;20032;-79
2023/04/06 00:54:03;;;;;;;13.10;7.20;;;;;;;-1.82;100.00;99034.75;5040202;28;20026;-79
2023/04/06 00:56:28;;;;;;;17.90;8.15;;;;;;;-1.86;100.00;99038.59;5059415;28;20023;-78
2023/04/06 00:58:53;;;;;;;18.33;8.15;;;;;;;-2.00;100.00;99021.13;5038849;28;20025;-78
2023/04/06 01:01:19;;;;;;;16.13;9.40;;;;;;;-2.03;100.00;99014.25;5039244;28;20021;-79
2023/04/06 01:03:48;;;;;;;16.63;8.07;;;;;;;-1.90;100.00;99018.59;5038508;28;20014;-78
2023/04/06 01:06:13;;;;;;;16.52;8.48;;;;;;;-1.90;100.00;99010.66;5055082;28;20036;-79
2023/04/06 01:08:39;;;;;;;13.95;7.13;;;;;;;-2.00;100.00;98997.25;5037498;28;20017;-79
2023/04/06 01:11:04;;;;;;;11.27;6.60;;;;;;;-1.89;100.00;99023.78;5037834;28;20028;-78
2023/04/06 01:13:30;;;;;;;12.07;6.93;;;;;;;-2.10;100.00;99010.38;5035262;28;20049;-77
2023/04/06 01:15:55;;;;;;;15.10;7.60;;;;;;;-2.14;100.00;98994.84;5026915;28;20002;-79
2023/04/06 01:18:29;;;;;;;19.10;8.38;;;;;;;-2.02;100.00;99008.00;5045799;28;20034;-77
2023/04/06 01:20:55;;;;;;;15.40;7.35;;;;;;;-1.88;100.00;99004.25;5047772;28;20429;-77
2023/04/06 01:23:20;;;;;;;13.98;7.72;;;;;;;-2.04;100.00;99001.13;5025888;28;20100;-77
2023/04/06 01:25:45;;;;;;;15.25;7.90;;;;;;;-2.15;100.00;99001.09;5033107;28;20030;-77
2023/04/06 01:28:11;;;;;;;13.63;7.78;;;;;;;-2.18;100.00;99018.06;5016840;28;20036;-76
2023/04/06 01:30:36;;;;;;;14.40;7.65;;;;;;;-2.24;100.00;99005.28;5021557;28;20033;-77
2023/04/06 01:33:01;;;;;;;16.63;8.27;;;;;;;-2.13;100.00;99004.47;5021197;28;20037;-77
2023/04/06 01:35:28;;;;;;;15.63;7.50;;;;;;;-2.12;100.00;99008.78;5014387;28;20567;-77
2023/04/06 01:37:53;;;;;;;12.95;7.60;;;;;;;-2.29;100.00;99003.00;5016510;28;20105;-77
2023/04/06 01:40:18;;;;;;;16.55;7.95;;;;;;;-2.57;100.00;98967.16;5045406;28;20056;-77
2023/04/06 01:42:44;;;;;;;17.83;7.57;;;;;;;-2.49;100.00;98990.41;5018557;28;20060;-77
2023/04/06 01:45:09;;;;;;;14.48;7.63;;;;;;;-2.59;100.00;98973.53;5015033;28;20033;-77
2023/04/06 01:47:35;;;;;;;19.15;7.95;;;;;;;-2.50;100.00;98989.56;5027597;28;20057;-77
2023/04/06 01:50:00;;;;;;;14.43;7.45;;;;;;;-2.52;100.00;98988.84;5013578;28;20116;-77
2023/04/06 01:52:26;;;;;;;17.23;7.65;;;;;;;-2.47;100.00;98984.03;5028090;28;20044;-77
2023/04/06 01:54:52;;;;;;;14.60;7.55;;;;;;;-2.40;100.00;99000.31;5045611;28;20077;-78
2023/04/06 01:57:17;;;;;;;15.30;7.93;;;;;;;-2.50;100.00;98978.97;5060477;28;20059;-78
2023/04/06 01:59:42;;;;;;;14.43;7.47;;;;;;;-2.58;100.00;98973.41;5031521;28;20025;-78
2023/04/06 02:02:08;;;;;;;12.63;6.88;;;;;;;-2.54;100.00;98969.59;5044618;28;20069;-79
2023/04/06 02:04:33;;;;;;;13.98;7.47;;;;;;;-2.31;100.00;98991.66;5039188;28;20026;-78
2023/04/06 02:06:58;;;;;;;17.27;7.30;;;;;;;-2.63;100.00;98958.84;5026070;28;20033;-77
2023/04/06 02:09:24;;;;;;;18.55;7.35;;;;;;;-2.68;100.00;98980.38;5028040;28;20084;-78
2023/04/06 02:11:49;;;;;;;15.65;8.18;;;;;;;-2.78;100.00;98959.00;5060383;28;20051;-78
2023/04/06 02:14:15;;;;;;;16.60;7.90;;;;;;;-2.66;100.00;98974.00;5019368;28;20037;-77
2023/04/06 02:16:41;;;;;;;17.20;8.52;;;;;;;-2.47;100.00;98986.69;5015537;28;20022;-76
2023/04/06 02:19:06;;;;;;;15.55;7.38;;;;;;;-2.58;100.00;98975.22;5008363;28;20045;-77
2023/04/06 02:21:31;;;;;;;14.45;7.00;;;;;;;-2.64;100.00;98979.19;5032695;28;20138;-77
2023/04/06 02:23:56;;;;;;;16.55;7.55;;;;;;;-2.62;100.00;98985.22;5013604;28;20558;-77
2023/04/06 02:26:22;;;;;;;14.45;7.35;;;;;;;-2.56;100.00;99003.28;5030556;28;20036;-77
2023/04/06 02:28:47;;;;;;;14.00;7.97;;;;;;;-2.71;100.00;98983.25;5032421;28;20040;-77
2023/04/06 02:31:15;;;;;;;17.25;8.35;;;;;;;-2.55;100.00;98996.19;5014363;28;20434;-77
2023/04/06 02:33:40;;;;;;;15.35;8.02;;;;;;;-2.57;100.00;98980.38;5008828;28;20392;-77
2023/04/06 02:36:05;;;;;;;17.50;8.45;;;;;;;-2.47;100.00;98981.38;5029456;28;20116;-76
2023/04/06 02:38:31;;;;;;;15.30;8.18;;;;;;;-2.47;100.00;98983.19;5019987;28;20061;-77
2023/04/06 02:40:56;;;;;;;16.75;8.05;;;;;;;-2.63;100.00;98953.53;5003512;28;20032;-77
2023/04/06 02:43:21;;;;;;;17.02;8.52;;;;;;;-2.50;100.00;98992.22;5032544;28;20025;-77
2023/04/06 02:45:47;;;;;;;18.70;8.98;;;;;;;-2.52;100.00;98972.09;5014764;28;20033;-77
2023/04/06 02:48:12;;;;;;;20.17;10.27;;;;;;;-2.50;100.00;98965.72;5026900;28;20101;-77
2023/04/06 02:50:37;;;;;;;19.60;9.57;;;;;;;-2.48;100.00;98981.53;5023800;28;20021;-77
2023/04/06 02:53:02;;;;;;;21.98;10.07;;;;;;;-2.66;100.00;98970.50;5038730;28;20052;-77
2023/04/06 02:55:28;;;;;;;17.08;8.77;;;;;;;-2.58;100.00;98975.22;5033417;28;20389;-77
2023/04/06 02:57:53;;;;;;;25.15;10.98;;;;;;;-2.60;100.00;98938.25;5033222;28;20115;-77
2023/04/06 03:00:19;;;;;;;20.10;10.10;;;;;;;-2.30;100.00;98973.97;5029202;28;20292;-77
2023/04/06 03:02:44;;;;;;;18.25;10.18;;;;;;;-2.35;100.00;98978.78;5032066;28;20421;-77
2023/04/06 03:05:10;;;;;;;16.80;9.88;;;;;;;-2.44;100.00;98977.66;5037708;28;20163;-76
2023/04/06 03:07:35;;;;;;;18.52;9.65;;;;;;;-2.42;100.00;98981.88;5034395;28;20331;-77
2023/04/06 03:10:01;;;;;;;16.75;8.45;;;;;;;-2.53;100.00;98958.03;5036418;28;20507;-76
2023/04/06 03:12:26;;;;;;;14.68;7.47;;;;;;;-2.49;100.00;98967.44;5028440;28;20138;-77
2023/04/06 03:14:51;;;;;;;17.02;8.05;;;;;;;-2.65;100.00;98969.53;5016426;28;20025;-77
2023/04/06 03:17:16;;;;;;;18.67;9.15;;;;;;;-2.49;100.00;98958.63;5010508;28;20036;-77
2023/04/06 03:22:10;;;;;;;16.45;8.02;;;;;;;-2.63;100.00;98978.22;5029364;28;20048;-67
2023/04/06 03:24:35;;;;;;;17.73;7.82;;;;;;;-2.58;100.00;98978.72;5034975;28;20026;-66
2023/04/06 03:27:03;;;;;;;18.05;8.98;;;;;;;-2.67;100.00;98984.72;5012526;28;20055;-66
2023/04/06 03:29:28;;;;;;;17.25;9.13;;;;;;;-2.66;100.00;98986.41;5020795;28;20408;-67
2023/04/06 03:31:54;;;;;;;19.58;10.13;;;;;;;-2.68;100.00;98985.66;5017116;28;20034;-67
2023/04/06 03:34:20;;;;;;;18.92;10.32;;;;;;;-2.72;100.00;98981.56;5021835;28;20111;-66
2023/04/06 03:36:45;;;;;;;28.83;12.27;;;;;;;-2.77;100.00;98986.38;5025065;28;20120;-67
2023/04/06 03:39:10;;;;;;;25.80;10.85;;;;;;;-2.81;100.00;98987.53;5024521;28;20030;-66
2023/04/06 03:41:36;;;;;;;18.42;9.82;;;;;;;-2.72;100.00;98994.81;5017969;28;20064;-67
2023/04/06 03:44:01;;;;;;;18.30;9.80;;;;;;;-2.75;100.00;98992.38;5016516;28;20052;-67
2023/04/06 03:46:26;;;;;;;17.13;9.13;;;;;;;-2.62;100.00;98990.53;5012592;28;20472;-67
2023/04/06 03:48:52;;;;;;;16.27;8.65;;;;;;;-2.63;100.00;98994.09;5017189;28;20029;-58
2023/04/06 03:51:17;;;;;;;17.70;9.38;;;;;;;-2.98;100.00;98962.34;5022590;28;20056;-58
2023/04/06 03:53:43;;;;;;;18.52;9.95;;;;;;;-2.92;100.00;98991.81;5017252;28;20025;-58
2023/04/06 03:56:08;;;;;;;19.45;8.68;;;;;;;-2.94;100.00;98990.25;5016128;28;20036;-58
2023/04/06 03:58:33;;;;;;;21.15;9.75;;;;;;;-2.93;100.00;98992.78;5015293;28;20021;-58
2023/04/06 04:00:59;;;;;;;14.93;8.82;;;;;;;-2.94;100.00;98996.38;5008469;28;20025;-58
2023/04/06 04:03:26;;;;;;;17.65;9.20;;;;;;;-2.99;100.00;98989.75;5008818;28;20449;-58
2023/04/06 04:05:52;;;;;;;15.52;8.60;;;;;;;-3.12;100.00;99005.66;5011816;28;20067;-58
2023/04/06 04:08:17;;;;;;;19.52;8.77;;;;;;;-3.22;100.00;99008.16;5017417;28;20025;-58
2023/04/06 04:10:43;;;;;;;19.05;9.73;;;;;;;-3.23;100.00;99010.91;5021450;28;20041;-58
2023/04/06 04:13:08;;;;;;;18.40;9.32;;;;;;;-3.31;100.00;99012.31;5015762;28;20478;-58
2023/04/06 04:15:33;;;;;;;21.08;9.73;;;;;;;-3.33;100.00;99008.94;5013241;28;20022;-58
2023/04/06 04:17:59;;;;;;;18.52;10.32;;;;;;;-3.32;100.00;99005.34;5008605;28;20026;-58
2023/04/06 04:20:25;;;;;;;21.73;9.57;;;;;;;-3.22;100.00;99025.81;5016651;28;20087;-58
2023/04/06 04:22:50;;;;;;;20.35;9.90;;;;;;;-3.20;100.00;99015.97;5013515;28;20055;-58
2023/04/06 04:25:15;;;;;;;19.05;9.45;;;;;;;-3.26;100.00;99019.06;5016839;28;20112;-67
2023/04/06 04:27:41;;;;;;;18.08;8.93;;;;;;;-3.28;100.00;99015.69;5014066;28;20018;-66
2023/04/06 04:30:07;;;;;;;17.95;8.88;;;;;;;-3.33;100.00;99024.81;5018945;28;20128;-65
2023/04/06 04:32:32;;;;;;;22.35;10.07;;;;;;;-3.28;100.00;99013.88;5009775;28;20057;-66
2023/04/06 04:34:57;;;;;;;28.10;10.60;;;;;;;-3.28;100.00;99013.88;5016648;28;20455;-66
2023/04/06 04:37:23;;;;;;;24.02;10.77;;;;;;;-3.27;100.00;99018.22;5016918;28;20392;-66
2023/04/06 04:39:48;;;;;;;25.83;12.10;;;;;;;-3.30;100.00;99018.47;5016628;28;20029;-67
2023/04/06 04:42:14;;;;;;;21.25;8.98;;;;;;;-3.33;100.00;99019.53;5010690;28;20040;-66
2023/04/06 04:44:39;;;;;;;22.63;10.80;;;;;;;-3.40;100.00;99014.78;5016734;28;20119;-66
2023/04/06 04:47:05;;;;;;;21.80;11.70;;;;;;;-3.38;100.00;99016.38;5017215;28;20056;-65
2023/04/06 04:49:32;;;;;;;20.65;10.30;;;;;;;-3.32;100.00;99025.66;5016450;28;20040;-65
2023/04/06 04:51:58;;;;;;;22.10;10.93;;;;;;;-3.34;100.00;99023.09;5017876;28;20037;-67
2023/04/06 04:54:26;;;;;;;20.45;9.85;;;;;;;-3.33;100.00;99019.53;5011235;28;20033;-66
2023/04/06 04:56:51;;;;;;;20.40;10.73;;;;;;;-3.31;100.00;99022.88;5020425;28;20079;-67
2023/04/06 04:59:17;;;;;;;22.02;10.77;;;;;;;-3.21;100.00;99017.78;5013188;28;20041;-66
2023/04/06 05:01:42;;;;;;;22.67;10.40;;;;;;;-3.07;100.00;99027.34;5013204;28;20036;-67
2023/04/06 05:04:08;;;;;;;18.52;9.68;;;;;;;-2.94;100.00;99017.56;5018354;28;20026;-67
2023/04/06 05:06:33;;;;;;;22.50;10.15;;;;;;;-2.96;100.00;99022.16;5010185;28;20381;-67
2023/04/06 05:08:59;;;;;;;24.85;9.88;;;;;;;-2.84;100.00;99017.72;5026017;28;20111;-67
2023/04/06 05:11:25;;;;;;;25.17;10.60;;;;;;;-2.82;100.00;99025.56;5014250;28;20025;-69
2023/04/06 05:13:50;;;;;;;19.73;11.02;;;;;;;-2.83;100.00;99026.50;5009568;28;20121;-69
2023/04/06 05:16:16;;;;;;;20.20;11.73;;;;;;;-2.73;100.00;99032.81;5007222;28;20049;-68
2023/04/06 05:18:42;;;;;;;18.92;10.80;;;;;;;-2.61;100.00;99031.09;5027207;28;20029;-70
2023/04/06 05:21:07;;;;;;;21.58;11.48;;;;;;;-2.52;100.00;99039.16;5015269;28;20037;-70
2023/04/06 05:23:33;;;;;;;19.02;10.73;;;;;;;-2.44;100.00;99035.94;5014323;28;20464;-70
2023/04/06 05:25:58;;;;;;;34.75;10.32;;;;;;;-2.35;100.00;99039.72;5018929;28;20022;-71
2023/04/06 05:28:24;;;;;;;17.00;9.30;;;;;;;-2.18;100.00;99039.28;5017478;28;20305;-67
2023/04/06 05:30:50;;;;;;;20.10;9.60;;;;;;;-2.06;100.00;99030.38;5007513;28;20021;-68
2023/04/06 05:33:15;;;;;;;23.48;10.88;;;;;;;-1.74;100.00;99037.66;5011227;28;20037;-69
2023/04/06 05:35:42;;;;;;;32.35;13.43;;;;;;;-0.54;100.00;99025.38;5011457;28;20021;-69
2023/04/06 05:38:08;;;;;;;16.10;8.93;;;;;;;1.78;100.00;99011.19;5019628;28;20362;-68
2023/04/06 05:40:34;;;;;;;15.27;8.10;;;;;;;3.09;100.00;99028.97;5015233;28;20037;-69
2023/04/06 05:43:00;;;;;;;13.23;8.00;;;;;;;4.20;100.00;99026.81;5013991;28;20029;-69
2023/04/06 05:45:25;;;;;;;13.15;8.52;;;;;;;5.49;100.00;99022.13;5011367;28;20042;-70
2023/04/06 05:47:51;;;;;;;12.68;8.07;;;;;;;6.06;99.29;99025.88;5011956;28;20044;-69
2023/04/06 05:50:16;;;;;;;15.80;7.15;;;;;;;7.11;83.38;99018.53;5018331;28;20115;-70
2023/04/06 05:52:43;;;;;;;18.92;7.85;;;;;;;7.30;74.27;99006.47;5034324;28;20396;-70
2023/04/06 05:55:09;;;;;;;12.23;6.82;;;;;;;7.63;73.21;99023.25;5015190;28;20033;-70
2023/04/06 05:57:35;;;;;;;14.13;7.00;;;;;;;8.77;67.87;99020.56;5007281;28;20116;-69
2023/04/06 06:00:00;;;;;;;13.40;7.22;;;;;;;9.19;64.31;99011.75;5007618;28;20116;-69
2023/04/06 06:02:26;;;;;;;13.45;7.53;;;;;;;9.77;60.35;99014.47;5005556;28;20033;-71
2023/04/06 06:04:51;;;;;;;14.43;8.27;;;;;;;9.76;61.33;99020.91;5014608;28;20475;-70
2023/04/06 06:07:17;;;;;;;18.08;9.68;;;;;;;10.15;58.57;99016.88;5005192;28;20025;-70
2023/04/06 06:09:42;;;;;;;16.83;9.50;;;;;;;11.56;53.83;99014.78;5010794;28;20457;-70
2023/04/06 06:12:08;;;;;;;21.58;10.70;;;;;;;12.69;50.18;99012.13;5011525;28;20127;-69
2023/04/06 06:14:34;;;;;;;12.25;7.80;;;;;;;13.92;47.58;99010.38;5024562;28;20417;-70
2023/04/06 06:16:59;;;;;;;13.02;8.35;;;;;;;13.33;47.43;99012.34;5003917;28;20018;-68
2023/04/06 06:19:25;;;;;;;24.25;10.65;;;;;;;13.28;48.83;99010.31;5018903;28;20034;-68
2023/04/06 06:21:50;;;;;;;18.48;7.93;;;;;;;13.85;48.61;99020.44;5012876;28;20033;-67
2023/04/06 06:24:16;;;;;;;14.85;8.20;;;;;;;13.96;46.26;99015.16;5006685;28;22201;-68
2023/04/06 06:26:41;;;;;;;20.52;8.95;;;;;;;15.79;44.19;99015.53;5007929;28;20489;-69
2023/04/06 06:29:07;;;;;;;18.83;7.90;;;;;;;14.47;44.58;99010.53;5012588;28;20041;-68
2023/04/06 06:31:32;;;;;;;18.63;8.50;;;;;;;15.07;44.14;99018.13;5011316;28;20029;-69
2023/04/06 06:33:58;;;;;;;18.75;8.73;;;;;;;15.85;42.07;99011.91;5014357;28;20021;-69
2023/04/06 06:36:23;;;;;;;14.32;8.13;;;;;;;16.63;41.01;99009.97;5015030;28;20712;-68
2023/04/06 06:38:49;;;;;;;13.88;7.57;;;;;;;16.80;41.19;99008.22;5012190;28;20132;-69
2023/04/06 06:41:15;;;;;;;15.40;8.57;;;;;;;17.17;39.73;99010.66;5017283;28;20053;-66
2023/04/06 06:43:40;;;;;;;16.45;8.20;;;;;;;17.59;39.32;99007.69;5008064;28;20021;-67
2023/04/06 06:46:06;;;;;;;11.48;6.85;;;;;;;18.46;37.94;99017.47;5013478;28;20044;-67
2023/04/06 06:48:31;;;;;;;11.85;6.70;;;;;;;19.33;36.69;99015.97;5013521;28;20024;-68
2023/04/06 06:50:57;;;;;;;11.88;7.10;;;;;;;19.26;37.35;99021.66;5009504;28;20049;-68
2023/04/06 06:53:24;;;;;;;8.23;6.35;;;;;;;19.12;38.24;99011.31;5013043;28;20027;-66
2023/04/06 06:55:52;;;;;;;9.55;6.90;;;;;;;17.72;38.15;99020.25;5011346;28;20041;-67
2023/04/06 06:58:19;;;;;;;12.27;7.50;;;;;;;17.70;38.18;99019.66;5008600;28;20477;-67
2023/04/06 07:00:55;;;;;;;11.15;6.20;;;;;;;17.86;37.77;99023.53;5012705;28;20124;-68
2023/04/06 07:03:21;;;;;;;9.43;6.47;;;;;;;17.47;37.14;99021.41;5013634;28;20022;-66
2023/04/06 07:06:08;;;;;;;9.23;6.18;;;;;;;17.94;37.25;99020.41;5014758;28;20020;-67
2023/04/06 07:11:12;;;;;;;8.52;6.43;;;;;;;18.32;36.94;99000.53;5061769;23;20049;-76
2023/04/06 07:13:37;;;;;;;9.80;6.80;;;;;;;18.34;37.20;99016.72;5056005;28;20036;-79
2023/04/06 07:16:03;;;;;;;9.93;7.00;;;;;;;17.91;37.49;99021.72;5038079;28;20021;-80
2023/04/06 07:18:28;;;;;;;12.00;7.03;;;;;;;17.79;37.16;98999.06;5040249;28;20037;-79
2023/04/06 07:20:54;;;;;;;10.00;7.00;;;;;;;17.70;37.75;99025.94;5069942;28;20087;-78
2023/04/06 07:23:19;;;;;;;12.68;6.60;;;;;;;19.04;36.05;98996.13;5036229;28;20378;-77
2023/04/06 07:25:45;;;;;;;10.18;6.50;;;;;;;20.38;34.28;99006.66;5046651;28;20029;-77
2023/04/06 07:28:10;;;;;;;9.15;5.95;;;;;;;21.57;33.63;99007.94;5036402;28;20017;-75
2023/04/06 07:30:37;;;;;;;8.98;6.40;;;;;;;23.10;32.33;99014.63;5041767;28;20072;-73
2023/04/06 07:33:02;;;;;;;8.52;6.05;;;;;;;23.27;31.72;99014.31;5017061;28;20025;-73
2023/04/06 07:35:29;;;;;;;10.57;6.43;;;;;;;22.14;32.06;99013.56;5035679;28;20483;-75
2023/04/06 07:37:55;;;;;;;10.95;6.63;;;;;;;21.96;32.30;99017.69;5023916;28;20115;-74
2023/04/06 07:40:21;;;;;;;13.38;6.90;;;;;;;20.73;33.43;99022.63;5042297;28;20036;-74
2023/04/06 07:42:46;;;;;;;12.27;6.40;;;;;;;21.67;32.82;99016.22;5070308;28;20020;-73
2023/04/06 07:45:12;;;;;;;8.27;6.40;;;;;;;23.16;31.04;99013.50;5040562;28;20119;-74
2023/04/06 07:47:37;;;;;;;9.32;6.22;;;;;;;22.59;31.83;99010.03;5037130;28;20021;-75
2023/04/06 07:50:03;;;;;;;9.43;6.68;;;;;;;22.49;32.28;99010.03;5028910;28;20025;-76
2023/04/06 07:52:28;;;;;;;7.90;5.90;;;;;;;23.91;31.88;99009.88;5051280;28;20475;-75
2023/04/06 07:54:53;;;;;;;9.07;6.45;;;;;;;25.63;30.09;98996.63;5031085;28;20032;-74
2023/04/06 07:57:19;;;;;;;12.00;6.93;;;;;;;23.61;30.61;99014.44;5025229;28;20049;-75
2023/04/06 07:59:44;;;;;;;7.35;5.90;;;;;;;24.92;30.43;98996.34;5015926;28;20144;-71
2023/04/06 08:02:10;;;;;;;10.18;6.45;;;;;;;24.17;30.44;98999.47;5035804;28;20025;-71
2023/04/06 08:04:35;;;;;;;9.27;5.30;;;;;;;24.27;30.56;99000.22;5047722;28;20025;-71
2023/04/06 08:07:00;;;;;;;8.98;6.35;;;;;;;24.47;29.65;98995.66;5031448;28;20021;-71
2023/04/06 08:09:26;;;;;;;8.32;6.20;;;;;;;24.36;28.82;98999.59;5015929;28;20021;-71
2023/04/06 08:11:52;;;;;;;10.55;6.60;;;;;;;24.73;27.83;99000.97;5046113;28;20020;-72
2023/04/06 08:14:17;;;;;;;10.15;7.18;;;;;;;24.84;27.43;99008.88;5023497;28;20426;-71
2023/04/06 08:16:42;;;;;;;10.10;6.90;;;;;;;24.18;26.48;99001.97;5044034;28;20100;-71
2023/04/06 08:19:09;;;;;;;10.82;7.00;;;;;;;23.59;27.56;98987.09;5042391;28;20055;-72
2023/04/06 08:21:35;;;;;;;9.27;6.45;;;;;;;25.07;26.12;98998.94;5031496;28;20017;-71
2023/04/06 08:24:01;;;;;;;10.02;7.40;;;;;;;24.41;27.12;98999.56;5043193;28;20500;-71
2023/04/06 08:26:26;;;;;;;12.43;7.68;;;;;;;24.13;26.91;99003.91;5040265;28;20053;-73
2023/04/06 08:28:52;;;;;;;9.77;6.85;;;;;;;24.23;27.15;98999.16;5029845;28;20063;-72
2023/04/06 08:31:17;;;;;;;12.63;7.22;;;;;;;24.54;27.11;98993.38;5042048;28;20025;-72
2023/04/06 08:33:42;;;;;;;13.18;7.70;;;;;;;25.13;26.95;98994.19;5046261;28;20052;-69
2023/04/06 08:36:12;;;;;;;10.80;7.53;;;;;;;24.48;26.51;99000.09;5040314;28;20486;-70
2023/04/06 08:38:38;;;;;;;12.07;7.10;;;;;;;26.02;26.07;99002.75;5051488;28;20020;-70
2023/04/06 08:41:17;;;;;;;14.13;7.30;;;;;;;25.79;26.66;98995.28;5042886;28;20074;-70
2023/04/06 08:44:03;;;;;;;13.80;6.85;;;;;;;24.68;26.82;98999.91;5052613;28;20028;-69
2023/04/06 08:46:30;;;;;;;14.63;7.55;;;;;;;27.36;25.32;99006.81;5039842;28;20026;-71
2023/04/06 08:49:03;;;;;;;10.52;7.25;;;;;;;25.99;26.19;99006.13;5050086;28;20025;-71
2023/04/06 08:51:30;;;;;;;11.45;7.38;;;;;;;25.56;26.08;98999.75;5042842;28;20029;-69
2023/04/06 08:53:57;;;;;;;11.40;7.30;;;;;;;25.66;26.22;99001.56;5033196;28;20419;-72
2023/04/06 08:56:27;;;;;;;12.23;7.40;;;;;;;26.47;24.76;98998.72;5057342;28;20051;-69
2023/04/06 08:58:54;;;;;;;15.30;7.85;;;;;;;25.43;26.09;99003.25;5041473;28;20033;-73
2023/04/06 09:01:27;;;;;;;8.73;6.53;;;;;;;27.40;24.73;98971.69;5048493;28;20087;-80
2023/04/06 09:03:57;;;;;;;11.98;7.47;;;;;;;25.73;25.71;98991.78;5031437;28;20029;-72
2023/04/06 09:06:22;;;;;;;12.98;6.60;;;;;;;26.98;25.45;98986.69;5030564;28;20021;-78
2023/04/06 09:08:48;;;;;;;10.38;6.85;;;;;;;28.07;24.82;98959.94;5023615;28;20059;-74
2023/04/06 09:11:14;;;;;;;13.77;7.35;;;;;;;26.81;25.16;98967.88;5029617;28;20104;-73
2023/04/06 09:13:46;;;;;;;12.38;6.93;;;;;;;28.29;24.49;98977.75;5045071;28;20025;-75
2023/04/06 09:16:11;;;;;;;10.13;6.35;;;;;;;27.60;23.89;98959.31;5044921;28;20032;-75
2023/04/06 09:18:37;;;;;;;9.98;6.55;;;;;;;26.75;24.55;98971.84;5032943;28;20027;-75
2023/04/06 09:21:05;;;;;;;8.95;6.50;;;;;;;28.06;24.22;98976.94;5059127;23;20045;-71
2023/04/06 09:23:31;;;;;;;8.38;6.20;;;;;;;26.24;24.41;98976.34;5048659;28;20501;-71
2023/04/06 09:26:07;;;;;;;8.20;6.53;;;;;;;27.40;24.91;98959.78;5050539;28;20059;-74
2023/04/06 09:28:48;;;;;;;10.50;6.80;;;;;;;27.91;23.62;98978.13;5051721;28;20028;-73
2023/04/06 09:31:21;;;;;;;13.40;6.30;;;;;;;26.47;24.27;98977.34;5043554;28;20057;-71
2023/04/06 09:33:46;;;;;;;7.53;6.07;;;;;;;27.50;23.82;98976.22;5030856;28;20029;-71
2023/04/06 09:36:15;;;;;;;9.18;6.13;;;;;;;27.35;23.48;98959.88;5006756;28;20029;-80
2023/04/06 09:38:55;;;;;;;10.27;6.10;;;;;;;26.96;23.41;98969.53;5007807;28;20048;-77
2023/04/06 09:41:30;;;;;;;10.55;5.70;;;;;;;25.94;22.98;98964.63;5028455;28;20180;-78
2023/04/06 09:44:14;;;;;;;8.85;6.05;;;;;;;25.75;22.90;98961.81;5037399;28;20023;-79
2023/04/06 09:46:42;;;;;;;9.50;5.63;;;;;;;23.88;24.37;98969.84;5012400;28;20029;-72
2023/04/06 09:49:08;;;;;;;10.35;5.80;;;;;;;26.06;22.46;98964.13;5028899;28;20029;-72
2023/04/06 09:51:39;;;;;;;10.10;6.50;;;;;;;24.68;24.38;98949.25;5017069;28;20028;-72
2023/04/06 09:54:07;;;;;;;9.88;6.30;;;;;;;24.03;24.92;98952.31;5027709;28;20447;-72
2023/04/06 09:56:46;;;;;;;8.70;6.32;;;;;;;24.49;23.76;98958.28;5017232;28;20025;-71
2023/04/06 09:59:25;;;;;;;9.18;6.20;;;;;;;25.88;23.39;98957.47;5026844;28;20109;-71
2023/04/06 10:01:51;;;;;;;9.65;6.32;;;;;;;25.38;24.30;98967.31;5025048;28;20029;-71
2023/04/06 10:04:46;;;;;;;10.27;7.07;;;;;;;27.74;22.73;98960.09;5029716;28;20149;-72
2023/04/06 10:07:13;;;;;;;10.18;6.40;;;;;;;25.93;23.39;98943.53;5008921;28;20056;-72
2023/04/06 10:09:38;;;;;;;9.85;6.20;;;;;;;25.42;23.46;98949.00;5011320;28;20383;-72
2023/04/06 10:12:06;;;;;;;10.77;6.03;;;;;;;26.10;23.37;98945.78;5031458;28;20087;-71
2023/04/06 10:14:38;;;;;;;9.68;6.00;;;;;;;24.94;24.42;98971.94;5014471;28;20043;-71
2023/04/06 10:17:04;;;;;;;9.98;6.90;;;;;;;24.77;25.10;98957.75;5028573;28;20036;-72
2023/04/06 10:19:41;;;;;;;8.98;6.05;;;;;;;27.47;23.94;98951.84;5004829;28;20570;-72
2023/04/06 10:22:10;;;;;;;8.82;5.90;;;;;;;30.39;21.48;98936.28;5033047;28;20033;-74
2023/04/06 10:24:35;;;;;;;;;;;;;;;30.33;21.77;98954.38;5035209;28;20036;-70
2023/04/06 10:27:02;;;;;;;9.70;5.55;;;;;;;25.85;23.48;98947.00;5048318;28;19913;-71
2023/04/06 10:29:27;;;;;;;8.15;5.18;;;;;;;26.46;22.60;98950.69;5041073;28;20065;-72
2023/04/06 10:31:55;;;;;;;9.27;6.07;;;;;;;26.33;23.21;98951.50;5034326;28;20029;-73
2023/04/06 10:34:20;;;;;;;9.50;5.82;;;;;;;27.76;23.36;98955.06;5030754;28;20025;-70
2023/04/06 10:36:46;;;;;;;10.95;6.53;;;;;;;28.42;22.46;98949.03;5028538;28;20479;-71
2023/04/06 10:39:11;;;;;;;9.68;6.78;;;;;;;26.65;22.65;98942.38;5005718;28;20025;-71
2023/04/06 10:41:42;;;;;;;9.70;6.55;;;;;;;28.04;22.27;98951.41;5026171;28;20124;-71
2023/04/06 10:44:16;;;;;;;11.52;6.85;;;;;;;26.27;23.69;98947.16;5020447;28;20104;-71
2023/04/06 10:46:52;;;;;;;13.75;6.40;;;;;;;28.59;23.28;98948.38;5009839;28;20032;-73
2023/04/06 10:49:18;;;;;;;9.38;6.88;;;;;;;28.92;23.12;98943.25;5028107;28;20032;-71
2023/04/06 10:51:43;;;;;;;9.77;6.85;;;;;;;28.25;21.21;98944.19;5030942;28;20017;-71
2023/04/06 10:54:11;;;;;;;9.23;6.28;;;;;;;27.84;22.11;98933.25;5024286;28;20470;-71
2023/04/06 10:56:38;;;;;;;10.50;6.43;;;;;;;27.66;21.97;98940.56;5013481;28;20028;-70
2023/04/06 10:59:03;;;;;;;7.75;5.70;;;;;;;27.78;22.88;98923.34;5028738;28;20048;-70
2023/04/06 11:01:29;;;;;;;10.57;5.90;;;;;;;28.22;22.72;98925.34;5022440;28;20614;-71
2023/04/06 11:03:57;;;;;;;7.13;5.95;;;;;;;30.19;21.10;98912.66;5012997;28;20616;-71
2023/04/06 11:06:28;;;;;;;8.60;5.90;;;;;;;31.90;21.01;98936.88;5011398;28;20112;-72
2023/04/06 11:08:55;;;;;;;7.70;5.53;;;;;;;32.82;19.37;98925.44;5028529;28;20064;-72
2023/04/06 11:11:23;;;;;;;8.60;5.15;;;;;;;34.65;19.37;98923.44;5031653;28;20029;-72
2023/04/06 11:13:54;;;;;;;6.88;5.68;;;;;;;31.53;20.00;98926.31;5016968;28;20030;-71
2023/04/06 11:16:21;;;;;;;6.30;5.35;;;;;;;31.62;19.59;98921.47;5013607;28;20591;-71
2023/04/06 11:18:57;;;;;;;8.55;7.20;;;;;;;28.38;21.06;98928.56;5032064;28;20030;-71
2023/04/06 11:21:39;;;;;;;10.07;5.82;;;;;;;27.90;21.36;98935.59;5025655;28;20025;-71
2023/04/06 11:24:15;;;;;;;8.93;6.50;;;;;;;25.78;22.57;98932.66;5029338;28;20061;-71